<?xml version="1.0" encoding="UTF-8" standalone="no" ?>
<gpx xmlns="http://www.topografix.com/GPX/1/1" xmlns:xsi="http://www.w3.org/2001/XMLSchema-instance" xsi:schemaLocation="http://www.topografix.com/GPX/1/1 http://www.topografix.com/GPX/1/1/gpx.xsd" version="1.1" creator="VisuGPX - https://www.visugpx.com">
  <metadata>
    <name>GPJ J1</name>
    <desc><![CDATA[J1 de la GTJ]]></desc>
  </metadata>
  <trk>
    <name><![CDATA[--Morteau-- OR-2839180:GTJ - De Morteau à Bellegarde]]></name>
    <desc><![CDATA[Total: 45.4km]]></desc>
    <trkseg>
      <trkpt lat="46.90454" lon="6.37098">
        <ele>862</ele>
        <time>2016-04-27T04:12:13Z</time>
      </trkpt>
      <trkpt lat="46.90408" lon="6.37147">
        <ele>866</ele>
        <time>2016-04-27T04:14:13Z</time>
      </trkpt>
      <trkpt lat="46.90326" lon="6.37167">
        <ele>861</ele>
        <time>2016-04-27T04:16:13Z</time>
      </trkpt>
      <trkpt lat="46.90267" lon="6.37314">
        <ele>864</ele>
        <time>2016-04-27T04:18:13Z</time>
      </trkpt>
      <trkpt lat="46.90219" lon="6.37508">
        <ele>875</ele>
        <time>2016-04-27T04:20:13Z</time>
      </trkpt>
      <trkpt lat="46.90191" lon="6.37676">
        <ele>886</ele>
        <time>2016-04-27T04:22:13Z</time>
      </trkpt>
      <trkpt lat="46.90139" lon="6.37751">
        <ele>896</ele>
        <time>2016-04-27T04:24:13Z</time>
      </trkpt>
      <trkpt lat="46.90069" lon="6.3768">
        <ele>892</ele>
        <time>2016-04-27T04:26:13Z</time>
      </trkpt>
      <trkpt lat="46.89998" lon="6.37649">
        <ele>893</ele>
        <time>2016-04-27T04:28:13Z</time>
      </trkpt>
      <trkpt lat="46.89948" lon="6.3754">
        <ele>880</ele>
        <time>2016-04-27T04:30:13Z</time>
      </trkpt>
      <trkpt lat="46.89889" lon="6.37542">
        <ele>890</ele>
        <time>2016-04-27T04:32:13Z</time>
      </trkpt>
      <trkpt lat="46.89812" lon="6.37438">
        <ele>892</ele>
        <time>2016-04-27T04:34:13Z</time>
      </trkpt>
      <trkpt lat="46.89658" lon="6.37341">
        <ele>907</ele>
        <time>2016-04-27T04:36:13Z</time>
      </trkpt>
      <trkpt lat="46.89532" lon="6.37206">
        <ele>899</ele>
        <time>2016-04-27T04:38:13Z</time>
      </trkpt>
      <trkpt lat="46.89411" lon="6.37184">
        <ele>898</ele>
        <time>2016-04-27T04:40:13Z</time>
      </trkpt>
      <trkpt lat="46.89126" lon="6.36959">
        <ele>880</ele>
        <time>2016-04-27T04:42:13Z</time>
      </trkpt>
      <trkpt lat="46.89114" lon="6.36925">
        <ele>877</ele>
        <time>2016-04-27T04:44:13Z</time>
      </trkpt>
      <trkpt lat="46.89078" lon="6.36909">
        <ele>879</ele>
        <time>2016-04-27T04:46:13Z</time>
      </trkpt>
      <trkpt lat="46.89039" lon="6.36985">
        <ele>896</ele>
        <time>2016-04-27T04:48:13Z</time>
      </trkpt>
      <trkpt lat="46.89001" lon="6.37048">
        <ele>909</ele>
        <time>2016-04-27T04:50:13Z</time>
      </trkpt>
      <trkpt lat="46.88921" lon="6.37029">
        <ele>934</ele>
        <time>2016-04-27T04:52:13Z</time>
      </trkpt>
      <trkpt lat="46.88829" lon="6.3695">
        <ele>945</ele>
        <time>2016-04-27T04:54:13Z</time>
      </trkpt>
      <trkpt lat="46.88702" lon="6.36967">
        <ele>964</ele>
        <time>2016-04-27T04:56:13Z</time>
      </trkpt>
      <trkpt lat="46.88669" lon="6.3703">
        <ele>976</ele>
        <time>2016-04-27T04:58:13Z</time>
      </trkpt>
      <trkpt lat="46.88335" lon="6.37038">
        <ele>995</ele>
        <time>2016-04-27T05:00:13Z</time>
      </trkpt>
      <trkpt lat="46.88332" lon="6.37116">
        <ele>1003</ele>
        <time>2016-04-27T05:02:13Z</time>
      </trkpt>
      <trkpt lat="46.88335" lon="6.37176">
        <ele>1011</ele>
        <time>2016-04-27T05:04:13Z</time>
      </trkpt>
      <trkpt lat="46.8836" lon="6.37237">
        <ele>1020</ele>
        <time>2016-04-27T05:06:13Z</time>
      </trkpt>
      <trkpt lat="46.88326" lon="6.37306">
        <ele>1020</ele>
        <time>2016-04-27T05:08:13Z</time>
      </trkpt>
      <trkpt lat="46.88252" lon="6.37597">
        <ele>1022</ele>
        <time>2016-04-27T05:10:13Z</time>
      </trkpt>
      <trkpt lat="46.88191" lon="6.37789">
        <ele>1050</ele>
        <time>2016-04-27T05:12:13Z</time>
      </trkpt>
      <trkpt lat="46.88154" lon="6.37839">
        <ele>1054</ele>
        <time>2016-04-27T05:14:13Z</time>
      </trkpt>
      <trkpt lat="46.88169" lon="6.37919">
        <ele>1059</ele>
        <time>2016-04-27T05:16:13Z</time>
      </trkpt>
      <trkpt lat="46.88161" lon="6.38017">
        <ele>1060</ele>
        <time>2016-04-27T05:18:13Z</time>
      </trkpt>
      <trkpt lat="46.88107" lon="6.38026">
        <ele>1064</ele>
        <time>2016-04-27T05:20:13Z</time>
      </trkpt>
      <trkpt lat="46.88053" lon="6.37871">
        <ele>1055</ele>
        <time>2016-04-27T05:22:13Z</time>
      </trkpt>
      <trkpt lat="46.87878" lon="6.37877">
        <ele>1051</ele>
        <time>2016-04-27T05:24:13Z</time>
      </trkpt>
      <trkpt lat="46.87713" lon="6.37825">
        <ele>1032</ele>
        <time>2016-04-27T05:26:13Z</time>
      </trkpt>
      <trkpt lat="46.87551" lon="6.37807">
        <ele>992</ele>
        <time>2016-04-27T05:28:13Z</time>
      </trkpt>
      <trkpt lat="46.87612" lon="6.37883">
        <ele>1010</ele>
        <time>2016-04-27T05:30:13Z</time>
      </trkpt>
      <trkpt lat="46.8764" lon="6.37958">
        <ele>1010</ele>
        <time>2016-04-27T05:32:13Z</time>
      </trkpt>
      <trkpt lat="46.87598" lon="6.38007">
        <ele>1002</ele>
        <time>2016-04-27T05:34:13Z</time>
      </trkpt>
      <trkpt lat="46.87561" lon="6.37926">
        <ele>997</ele>
        <time>2016-04-27T05:36:13Z</time>
      </trkpt>
      <trkpt lat="46.87489" lon="6.37901">
        <ele>982</ele>
        <time>2016-04-27T05:38:13Z</time>
      </trkpt>
      <trkpt lat="46.87439" lon="6.37923">
        <ele>970</ele>
        <time>2016-04-27T05:40:13Z</time>
      </trkpt>
      <trkpt lat="46.87414" lon="6.38112">
        <ele>952</ele>
        <time>2016-04-27T05:42:13Z</time>
      </trkpt>
      <trkpt lat="46.8742" lon="6.38198">
        <ele>947</ele>
        <time>2016-04-27T05:44:13Z</time>
      </trkpt>
      <trkpt lat="46.87431" lon="6.38271">
        <ele>944</ele>
        <time>2016-04-27T05:46:13Z</time>
      </trkpt>
      <trkpt lat="46.87371" lon="6.382">
        <ele>926</ele>
        <time>2016-04-27T05:48:13Z</time>
      </trkpt>
      <trkpt lat="46.87332" lon="6.3802">
        <ele>920</ele>
        <time>2016-04-27T05:50:13Z</time>
      </trkpt>
      <trkpt lat="46.87332" lon="6.38145">
        <ele>912</ele>
        <time>2016-04-27T05:52:13Z</time>
      </trkpt>
      <trkpt lat="46.87315" lon="6.38249">
        <ele>898</ele>
        <time>2016-04-27T05:54:13Z</time>
      </trkpt>
      <trkpt lat="46.8733" lon="6.38322">
        <ele>898</ele>
        <time>2016-04-27T05:56:13Z</time>
      </trkpt>
      <trkpt lat="46.87265" lon="6.3812">
        <ele>882</ele>
        <time>2016-04-27T05:58:13Z</time>
      </trkpt>
      <trkpt lat="46.8722" lon="6.38012">
        <ele>871</ele>
        <time>2016-04-27T06:00:13Z</time>
      </trkpt>
      <trkpt lat="46.87213" lon="6.38208">
        <ele>869</ele>
        <time>2016-04-27T06:02:13Z</time>
      </trkpt>
      <trkpt lat="46.87216" lon="6.38511">
        <ele>865</ele>
        <time>2016-04-27T06:04:13Z</time>
      </trkpt>
      <trkpt lat="46.87236" lon="6.38683">
        <ele>870</ele>
        <time>2016-04-27T06:06:13Z</time>
      </trkpt>
      <trkpt lat="46.87263" lon="6.38823">
        <ele>873</ele>
        <time>2016-04-27T06:08:13Z</time>
      </trkpt>
      <trkpt lat="46.87245" lon="6.38959">
        <ele>873</ele>
        <time>2016-04-27T06:10:13Z</time>
      </trkpt>
      <trkpt lat="46.8723" lon="6.39109">
        <ele>872</ele>
        <time>2016-04-27T06:12:13Z</time>
      </trkpt>
      <trkpt lat="46.87274" lon="6.3929">
        <ele>876</ele>
        <time>2016-04-27T06:14:13Z</time>
      </trkpt>
      <trkpt lat="46.87272" lon="6.39447">
        <ele>870</ele>
        <time>2016-04-27T06:16:13Z</time>
      </trkpt>
      <trkpt lat="46.87237" lon="6.3957">
        <ele>868</ele>
        <time>2016-04-27T06:18:13Z</time>
      </trkpt>
      <trkpt lat="46.87223" lon="6.39693">
        <ele>871</ele>
        <time>2016-04-27T06:20:13Z</time>
      </trkpt>
      <trkpt lat="46.87162" lon="6.39774">
        <ele>881</ele>
        <time>2016-04-27T06:22:13Z</time>
      </trkpt>
      <trkpt lat="46.8716" lon="6.39826">
        <ele>890</ele>
        <time>2016-04-27T06:24:13Z</time>
      </trkpt>
      <trkpt lat="46.87232" lon="6.39963">
        <ele>896</ele>
        <time>2016-04-27T06:26:13Z</time>
      </trkpt>
      <trkpt lat="46.87268" lon="6.40071">
        <ele>898</ele>
        <time>2016-04-27T06:28:13Z</time>
      </trkpt>
      <trkpt lat="46.87251" lon="6.40313">
        <ele>918</ele>
        <time>2016-04-27T06:30:13Z</time>
      </trkpt>
      <trkpt lat="46.872" lon="6.40473">
        <ele>917</ele>
        <time>2016-04-27T06:32:13Z</time>
      </trkpt>
      <trkpt lat="46.87117" lon="6.40539">
        <ele>922</ele>
        <time>2016-04-27T06:34:13Z</time>
      </trkpt>
      <trkpt lat="46.8717" lon="6.40694">
        <ele>933</ele>
        <time>2016-04-27T06:36:13Z</time>
      </trkpt>
      <trkpt lat="46.87287" lon="6.40946">
        <ele>946</ele>
        <time>2016-04-27T06:38:13Z</time>
      </trkpt>
      <trkpt lat="46.87388" lon="6.41151">
        <ele>944</ele>
        <time>2016-04-27T06:40:13Z</time>
      </trkpt>
      <trkpt lat="46.87464" lon="6.41413">
        <ele>945</ele>
        <time>2016-04-27T06:42:13Z</time>
      </trkpt>
      <trkpt lat="46.87548" lon="6.41715">
        <ele>946</ele>
        <time>2016-04-27T06:44:13Z</time>
      </trkpt>
      <trkpt lat="46.87541" lon="6.41786">
        <ele>949</ele>
        <time>2016-04-27T06:46:13Z</time>
      </trkpt>
      <trkpt lat="46.87496" lon="6.41789">
        <ele>957</ele>
        <time>2016-04-27T06:48:13Z</time>
      </trkpt>
      <trkpt lat="46.87386" lon="6.41564">
        <ele>968</ele>
        <time>2016-04-27T06:50:13Z</time>
      </trkpt>
      <trkpt lat="46.87258" lon="6.41377">
        <ele>983</ele>
        <time>2016-04-27T06:52:13Z</time>
      </trkpt>
      <trkpt lat="46.87161" lon="6.41318">
        <ele>990</ele>
        <time>2016-04-27T06:54:13Z</time>
      </trkpt>
      <trkpt lat="46.87133" lon="6.41335">
        <ele>993</ele>
        <time>2016-04-27T06:56:13Z</time>
      </trkpt>
      <trkpt lat="46.87149" lon="6.41409">
        <ele>1000</ele>
        <time>2016-04-27T06:58:13Z</time>
      </trkpt>
      <trkpt lat="46.87186" lon="6.41497">
        <ele>1003</ele>
        <time>2016-04-27T07:00:13Z</time>
      </trkpt>
      <trkpt lat="46.87233" lon="6.41704">
        <ele>1028</ele>
        <time>2016-04-27T07:02:13Z</time>
      </trkpt>
      <trkpt lat="46.8729" lon="6.41879">
        <ele>1024</ele>
        <time>2016-04-27T07:04:13Z</time>
      </trkpt>
      <trkpt lat="46.87325" lon="6.42039">
        <ele>1032</ele>
        <time>2016-04-27T07:06:13Z</time>
      </trkpt>
      <trkpt lat="46.87509" lon="6.42552">
        <ele>1059</ele>
        <time>2016-04-27T07:08:13Z</time>
      </trkpt>
      <trkpt lat="46.87519" lon="6.42639">
        <ele>1062</ele>
        <time>2016-04-27T07:10:13Z</time>
      </trkpt>
      <trkpt lat="46.87718" lon="6.43258">
        <ele>1069</ele>
        <time>2016-04-27T07:12:13Z</time>
      </trkpt>
      <trkpt lat="46.87668" lon="6.43399">
        <ele>1076</ele>
        <time>2016-04-27T07:14:13Z</time>
      </trkpt>
      <trkpt lat="46.87627" lon="6.43402">
        <ele>1088</ele>
        <time>2016-04-27T07:16:13Z</time>
      </trkpt>
      <trkpt lat="46.87507" lon="6.43242">
        <ele>1102</ele>
        <time>2016-04-27T07:18:13Z</time>
      </trkpt>
      <trkpt lat="46.87315" lon="6.43175">
        <ele>1127</ele>
        <time>2016-04-27T07:20:13Z</time>
      </trkpt>
      <trkpt lat="46.87248" lon="6.43183">
        <ele>1133</ele>
        <time>2016-04-27T07:22:13Z</time>
      </trkpt>
      <trkpt lat="46.87188" lon="6.43099">
        <ele>1134</ele>
        <time>2016-04-27T07:24:13Z</time>
      </trkpt>
      <trkpt lat="46.87168" lon="6.43013">
        <ele>1135</ele>
        <time>2016-04-27T07:26:13Z</time>
      </trkpt>
      <trkpt lat="46.87166" lon="6.42947">
        <ele>1134</ele>
        <time>2016-04-27T07:28:13Z</time>
      </trkpt>
      <trkpt lat="46.87025" lon="6.42614">
        <ele>1128</ele>
        <time>2016-04-27T07:30:13Z</time>
      </trkpt>
      <trkpt lat="46.86956" lon="6.42524">
        <ele>1129</ele>
        <time>2016-04-27T07:32:13Z</time>
      </trkpt>
      <trkpt lat="46.86902" lon="6.42382">
        <ele>1124</ele>
        <time>2016-04-27T07:34:13Z</time>
      </trkpt>
      <trkpt lat="46.86834" lon="6.42409">
        <ele>1132</ele>
        <time>2016-04-27T07:36:13Z</time>
      </trkpt>
      <trkpt lat="46.86729" lon="6.42565">
        <ele>1147</ele>
        <time>2016-04-27T07:38:13Z</time>
      </trkpt>
      <trkpt lat="46.86668" lon="6.42627">
        <ele>1152</ele>
        <time>2016-04-27T07:40:13Z</time>
      </trkpt>
      <trkpt lat="46.86581" lon="6.42929">
        <ele>1176</ele>
        <time>2016-04-27T07:42:13Z</time>
      </trkpt>
      <trkpt lat="46.86498" lon="6.42994">
        <ele>1184</ele>
        <time>2016-04-27T07:44:13Z</time>
      </trkpt>
      <trkpt lat="46.86418" lon="6.42962">
        <ele>1179</ele>
        <time>2016-04-27T07:46:13Z</time>
      </trkpt>
      <trkpt lat="46.86281" lon="6.4288">
        <ele>1187</ele>
        <time>2016-04-27T07:48:13Z</time>
      </trkpt>
      <trkpt lat="46.86164" lon="6.4289">
        <ele>1195</ele>
        <time>2016-04-27T07:50:13Z</time>
      </trkpt>
      <trkpt lat="46.8608" lon="6.42963">
        <ele>1193</ele>
        <time>2016-04-27T07:52:13Z</time>
      </trkpt>
      <trkpt lat="46.86078" lon="6.4289">
        <ele>1198</ele>
        <time>2016-04-27T07:54:13Z</time>
      </trkpt>
      <trkpt lat="46.86094" lon="6.42819">
        <ele>1202</ele>
        <time>2016-04-27T07:56:13Z</time>
      </trkpt>
      <trkpt lat="46.86012" lon="6.42859">
        <ele>1206</ele>
        <time>2016-04-27T07:58:13Z</time>
      </trkpt>
      <trkpt lat="46.85911" lon="6.42786">
        <ele>1203</ele>
        <time>2016-04-27T08:00:13Z</time>
      </trkpt>
      <trkpt lat="46.85724" lon="6.42837">
        <ele>1198</ele>
        <time>2016-04-27T08:02:13Z</time>
      </trkpt>
      <trkpt lat="46.85635" lon="6.42922">
        <ele>1188</ele>
        <time>2016-04-27T08:04:13Z</time>
      </trkpt>
      <trkpt lat="46.85438" lon="6.42776">
        <ele>1180</ele>
        <time>2016-04-27T08:06:13Z</time>
      </trkpt>
      <trkpt lat="46.85345" lon="6.4273">
        <ele>1173</ele>
        <time>2016-04-27T08:08:13Z</time>
      </trkpt>
      <trkpt lat="46.85192" lon="6.42725">
        <ele>1177</ele>
        <time>2016-04-27T08:10:13Z</time>
      </trkpt>
      <trkpt lat="46.85117" lon="6.42542">
        <ele>1182</ele>
        <time>2016-04-27T08:12:13Z</time>
      </trkpt>
      <trkpt lat="46.85099" lon="6.42435">
        <ele>1176</ele>
        <time>2016-04-27T08:14:13Z</time>
      </trkpt>
      <trkpt lat="46.84967" lon="6.4234">
        <ele>1167</ele>
        <time>2016-04-27T08:16:13Z</time>
      </trkpt>
      <trkpt lat="46.84909" lon="6.42198">
        <ele>1157</ele>
        <time>2016-04-27T08:18:13Z</time>
      </trkpt>
      <trkpt lat="46.84757" lon="6.42035">
        <ele>1146</ele>
        <time>2016-04-27T08:20:13Z</time>
      </trkpt>
      <trkpt lat="46.84633" lon="6.41855">
        <ele>1130</ele>
        <time>2016-04-27T08:22:13Z</time>
      </trkpt>
      <trkpt lat="46.84563" lon="6.41791">
        <ele>1124</ele>
        <time>2016-04-27T08:24:13Z</time>
      </trkpt>
      <trkpt lat="46.84505" lon="6.41648">
        <ele>1118</ele>
        <time>2016-04-27T08:26:13Z</time>
      </trkpt>
      <trkpt lat="46.84464" lon="6.4154">
        <ele>1117</ele>
        <time>2016-04-27T08:28:13Z</time>
      </trkpt>
      <trkpt lat="46.84455" lon="6.41415">
        <ele>1114</ele>
        <time>2016-04-27T08:30:13Z</time>
      </trkpt>
      <trkpt lat="46.842" lon="6.41107">
        <ele>1105</ele>
        <time>2016-04-27T08:32:13Z</time>
      </trkpt>
      <trkpt lat="46.83883" lon="6.40781">
        <ele>1098</ele>
        <time>2016-04-27T08:34:13Z</time>
      </trkpt>
      <trkpt lat="46.8377" lon="6.40661">
        <ele>1093</ele>
        <time>2016-04-27T08:36:13Z</time>
      </trkpt>
      <trkpt lat="46.83706" lon="6.40557">
        <ele>1090</ele>
        <time>2016-04-27T08:38:13Z</time>
      </trkpt>
      <trkpt lat="46.83671" lon="6.4041">
        <ele>1083</ele>
        <time>2016-04-27T08:40:13Z</time>
      </trkpt>
      <trkpt lat="46.83635" lon="6.40158">
        <ele>1083</ele>
        <time>2016-04-27T08:42:13Z</time>
      </trkpt>
      <trkpt lat="46.83563" lon="6.40159">
        <ele>1085</ele>
        <time>2016-04-27T08:44:13Z</time>
      </trkpt>
      <trkpt lat="46.83535" lon="6.4019">
        <ele>1086</ele>
        <time>2016-04-27T08:46:13Z</time>
      </trkpt>
      <trkpt lat="46.8349" lon="6.40193">
        <ele>1088</ele>
        <time>2016-04-27T08:48:13Z</time>
      </trkpt>
      <trkpt lat="46.8349" lon="6.40173">
        <ele>1087</ele>
        <time>2016-04-27T08:50:13Z</time>
      </trkpt>
      <trkpt lat="46.83439" lon="6.40097">
        <ele>1090</ele>
        <time>2016-04-27T08:52:13Z</time>
      </trkpt>
      <trkpt lat="46.83438" lon="6.39986">
        <ele>1090</ele>
        <time>2016-04-27T08:54:13Z</time>
      </trkpt>
      <trkpt lat="46.83415" lon="6.39872">
        <ele>1088</ele>
        <time>2016-04-27T08:56:13Z</time>
      </trkpt>
      <trkpt lat="46.83394" lon="6.39838">
        <ele>1088</ele>
        <time>2016-04-27T08:58:13Z</time>
      </trkpt>
      <trkpt lat="46.83254" lon="6.39722">
        <ele>1085</ele>
        <time>2016-04-27T09:00:13Z</time>
      </trkpt>
      <trkpt lat="46.83166" lon="6.39526">
        <ele>1086</ele>
        <time>2016-04-27T09:02:13Z</time>
      </trkpt>
      <trkpt lat="46.83052" lon="6.39333">
        <ele>1085</ele>
        <time>2016-04-27T09:04:13Z</time>
      </trkpt>
      <trkpt lat="46.82977" lon="6.39269">
        <ele>1087</ele>
        <time>2016-04-27T09:06:13Z</time>
      </trkpt>
      <trkpt lat="46.82972" lon="6.39163">
        <ele>1090</ele>
        <time>2016-04-27T09:08:13Z</time>
      </trkpt>
      <trkpt lat="46.82994" lon="6.3904">
        <ele>1092</ele>
        <time>2016-04-27T09:10:13Z</time>
      </trkpt>
      <trkpt lat="46.83051" lon="6.38854">
        <ele>1092</ele>
        <time>2016-04-27T09:12:13Z</time>
      </trkpt>
      <trkpt lat="46.83093" lon="6.3868">
        <ele>1087</ele>
        <time>2016-04-27T09:14:13Z</time>
      </trkpt>
      <trkpt lat="46.83079" lon="6.38554">
        <ele>1091</ele>
        <time>2016-04-27T09:16:13Z</time>
      </trkpt>
      <trkpt lat="46.82945" lon="6.384">
        <ele>1107</ele>
        <time>2016-04-27T09:18:13Z</time>
      </trkpt>
      <trkpt lat="46.82744" lon="6.38221">
        <ele>1101</ele>
        <time>2016-04-27T09:20:13Z</time>
      </trkpt>
      <trkpt lat="46.82664" lon="6.38188">
        <ele>1103</ele>
        <time>2016-04-27T09:22:13Z</time>
      </trkpt>
      <trkpt lat="46.82742" lon="6.38037">
        <ele>1105</ele>
        <time>2016-04-27T09:24:13Z</time>
      </trkpt>
      <trkpt lat="46.8266" lon="6.37932">
        <ele>1099</ele>
        <time>2016-04-27T09:26:13Z</time>
      </trkpt>
      <trkpt lat="46.82495" lon="6.37749">
        <ele>1103</ele>
        <time>2016-04-27T09:28:13Z</time>
      </trkpt>
      <trkpt lat="46.82409" lon="6.37638">
        <ele>1101</ele>
        <time>2016-04-27T09:30:13Z</time>
      </trkpt>
      <trkpt lat="46.82418" lon="6.37382">
        <ele>1073</ele>
        <time>2016-04-27T09:32:13Z</time>
      </trkpt>
      <trkpt lat="46.82295" lon="6.37426">
        <ele>1075</ele>
        <time>2016-04-27T09:34:13Z</time>
      </trkpt>
      <trkpt lat="46.82163" lon="6.37468">
        <ele>1081</ele>
        <time>2016-04-27T09:36:13Z</time>
      </trkpt>
      <trkpt lat="46.82054" lon="6.37611">
        <ele>1092</ele>
        <time>2016-04-27T09:38:13Z</time>
      </trkpt>
      <trkpt lat="46.81994" lon="6.37653">
        <ele>1090</ele>
        <time>2016-04-27T09:40:13Z</time>
      </trkpt>
      <trkpt lat="46.81968" lon="6.37487">
        <ele>1107</ele>
        <time>2016-04-27T09:42:13Z</time>
      </trkpt>
      <trkpt lat="46.81923" lon="6.37365">
        <ele>1102</ele>
        <time>2016-04-27T09:44:13Z</time>
      </trkpt>
      <trkpt lat="46.81727" lon="6.37311">
        <ele>1104</ele>
        <time>2016-04-27T09:46:13Z</time>
      </trkpt>
      <trkpt lat="46.81532" lon="6.37329">
        <ele>1098</ele>
        <time>2016-04-27T09:48:13Z</time>
      </trkpt>
      <trkpt lat="46.81388" lon="6.37338">
        <ele>1087</ele>
        <time>2016-04-27T09:50:13Z</time>
      </trkpt>
      <trkpt lat="46.81262" lon="6.37211">
        <ele>1083</ele>
        <time>2016-04-27T09:52:13Z</time>
      </trkpt>
      <trkpt lat="46.81161" lon="6.37131">
        <ele>1077</ele>
        <time>2016-04-27T09:54:13Z</time>
      </trkpt>
      <trkpt lat="46.80948" lon="6.37056">
        <ele>1087</ele>
        <time>2016-04-27T09:56:13Z</time>
      </trkpt>
      <trkpt lat="46.8073" lon="6.36967">
        <ele>1079</ele>
        <time>2016-04-27T09:58:13Z</time>
      </trkpt>
      <trkpt lat="46.80585" lon="6.37003">
        <ele>1082</ele>
        <time>2016-04-27T10:00:13Z</time>
      </trkpt>
      <trkpt lat="46.80401" lon="6.37087">
        <ele>1064</ele>
        <time>2016-04-27T10:02:13Z</time>
      </trkpt>
      <trkpt lat="46.8029" lon="6.37046">
        <ele>1057</ele>
        <time>2016-04-27T10:04:13Z</time>
      </trkpt>
      <trkpt lat="46.80054" lon="6.36976">
        <ele>1049</ele>
        <time>2016-04-27T10:06:13Z</time>
      </trkpt>
      <trkpt lat="46.79942" lon="6.36968">
        <ele>1048</ele>
        <time>2016-04-27T10:08:13Z</time>
      </trkpt>
      <trkpt lat="46.79787" lon="6.3714">
        <ele>1041</ele>
        <time>2016-04-27T10:10:13Z</time>
      </trkpt>
      <trkpt lat="46.79695" lon="6.37198">
        <ele>1040</ele>
        <time>2016-04-27T10:12:13Z</time>
      </trkpt>
      <trkpt lat="46.79682" lon="6.37309">
        <ele>1042</ele>
        <time>2016-04-27T10:14:13Z</time>
      </trkpt>
      <trkpt lat="46.79612" lon="6.37376">
        <ele>1045</ele>
        <time>2016-04-27T10:16:13Z</time>
      </trkpt>
      <trkpt lat="46.79595" lon="6.37466">
        <ele>1053</ele>
        <time>2016-04-27T10:18:13Z</time>
      </trkpt>
      <trkpt lat="46.79592" lon="6.37558">
        <ele>1072</ele>
        <time>2016-04-27T10:20:13Z</time>
      </trkpt>
      <trkpt lat="46.79497" lon="6.37584">
        <ele>1079</ele>
        <time>2016-04-27T10:22:13Z</time>
      </trkpt>
      <trkpt lat="46.7938" lon="6.37562">
        <ele>1078</ele>
        <time>2016-04-27T10:24:13Z</time>
      </trkpt>
      <trkpt lat="46.79267" lon="6.37566">
        <ele>1085</ele>
        <time>2016-04-27T10:26:13Z</time>
      </trkpt>
      <trkpt lat="46.79174" lon="6.37546">
        <ele>1078</ele>
        <time>2016-04-27T10:28:13Z</time>
      </trkpt>
      <trkpt lat="46.79025" lon="6.37535">
        <ele>1073</ele>
        <time>2016-04-27T10:30:13Z</time>
      </trkpt>
      <trkpt lat="46.78916" lon="6.37566">
        <ele>1073</ele>
        <time>2016-04-27T10:32:13Z</time>
      </trkpt>
      <trkpt lat="46.78785" lon="6.37576">
        <ele>1069</ele>
        <time>2016-04-27T10:34:13Z</time>
      </trkpt>
      <trkpt lat="46.78681" lon="6.37582">
        <ele>1069</ele>
        <time>2016-04-27T10:36:13Z</time>
      </trkpt>
      <trkpt lat="46.78492" lon="6.37581">
        <ele>1076</ele>
        <time>2016-04-27T10:38:13Z</time>
      </trkpt>
      <trkpt lat="46.78317" lon="6.37574">
        <ele>1078</ele>
        <time>2016-04-27T10:40:13Z</time>
      </trkpt>
      <trkpt lat="46.78169" lon="6.37563">
        <ele>1076</ele>
        <time>2016-04-27T10:42:13Z</time>
      </trkpt>
      <trkpt lat="46.78057" lon="6.37541">
        <ele>1060</ele>
        <time>2016-04-27T10:44:13Z</time>
      </trkpt>
      <trkpt lat="46.77964" lon="6.37607">
        <ele>1055</ele>
        <time>2016-04-27T10:46:13Z</time>
      </trkpt>
      <trkpt lat="46.77883" lon="6.37607">
        <ele>1044</ele>
        <time>2016-04-27T10:48:13Z</time>
      </trkpt>
      <trkpt lat="46.7783" lon="6.3759">
        <ele>1032</ele>
        <time>2016-04-27T10:50:13Z</time>
      </trkpt>
      <trkpt lat="46.77689" lon="6.37743">
        <ele>1031</ele>
        <time>2016-04-27T10:52:13Z</time>
      </trkpt>
      <trkpt lat="46.77547" lon="6.37824">
        <ele>1018</ele>
        <time>2016-04-27T10:54:13Z</time>
      </trkpt>
      <trkpt lat="46.77497" lon="6.3784">
        <ele>1014</ele>
        <time>2016-04-27T10:56:13Z</time>
      </trkpt>
      <trkpt lat="46.7745" lon="6.37745">
        <ele>1003</ele>
        <time>2016-04-27T10:58:13Z</time>
      </trkpt>
      <trkpt lat="46.77411" lon="6.37722">
        <ele>1004</ele>
        <time>2016-04-27T11:00:13Z</time>
      </trkpt>
      <trkpt lat="46.77422" lon="6.37658">
        <ele>1010</ele>
        <time>2016-04-27T11:02:13Z</time>
      </trkpt>
      <trkpt lat="46.77502" lon="6.37559">
        <ele>1012</ele>
        <time>2016-04-27T11:04:13Z</time>
      </trkpt>
      <trkpt lat="46.77537" lon="6.37463">
        <ele>1012</ele>
        <time>2016-04-27T11:06:13Z</time>
      </trkpt>
      <trkpt lat="46.77516" lon="6.37416">
        <ele>1015</ele>
        <time>2016-04-27T11:08:13Z</time>
      </trkpt>
      <trkpt lat="46.77383" lon="6.37347">
        <ele>1022</ele>
        <time>2016-04-27T11:10:13Z</time>
      </trkpt>
      <trkpt lat="46.77282" lon="6.373">
        <ele>1030</ele>
        <time>2016-04-27T11:12:13Z</time>
      </trkpt>
      <trkpt lat="46.77243" lon="6.37244">
        <ele>1026</ele>
        <time>2016-04-27T11:14:13Z</time>
      </trkpt>
      <trkpt lat="46.77243" lon="6.37126">
        <ele>1027</ele>
        <time>2016-04-27T11:16:13Z</time>
      </trkpt>
      <trkpt lat="46.77224" lon="6.37027">
        <ele>1025</ele>
        <time>2016-04-27T11:18:13Z</time>
      </trkpt>
      <trkpt lat="46.77146" lon="6.36923">
        <ele>1024</ele>
        <time>2016-04-27T11:20:13Z</time>
      </trkpt>
      <trkpt lat="46.77064" lon="6.36838">
        <ele>1025</ele>
        <time>2016-04-27T11:22:13Z</time>
      </trkpt>
      <trkpt lat="46.76988" lon="6.36694">
        <ele>1036</ele>
        <time>2016-04-27T11:24:13Z</time>
      </trkpt>
      <trkpt lat="46.76947" lon="6.3656">
        <ele>1035</ele>
        <time>2016-04-27T11:26:13Z</time>
      </trkpt>
      <trkpt lat="46.76884" lon="6.36438">
        <ele>1041</ele>
        <time>2016-04-27T11:28:13Z</time>
      </trkpt>
      <trkpt lat="46.76897" lon="6.36202">
        <ele>1028</ele>
        <time>2016-04-27T11:30:13Z</time>
      </trkpt>
      <trkpt lat="46.76883" lon="6.35959">
        <ele>1015</ele>
        <time>2016-04-27T11:32:13Z</time>
      </trkpt>
      <trkpt lat="46.76864" lon="6.35715">
        <ele>1010</ele>
        <time>2016-04-27T11:34:13Z</time>
      </trkpt>
      <trkpt lat="46.76869" lon="6.35715">
        <ele>1009</ele>
        <time>2016-04-27T11:36:13Z</time>
      </trkpt>
      <trkpt lat="46.7688" lon="6.35657">
        <ele>1009</ele>
        <time>2016-04-27T11:38:13Z</time>
      </trkpt>
      <trkpt lat="46.76947" lon="6.35544">
        <ele>1006</ele>
        <time>2016-04-27T11:40:13Z</time>
      </trkpt>
      <trkpt lat="46.77016" lon="6.3551">
        <ele>1002</ele>
        <time>2016-04-27T11:42:13Z</time>
      </trkpt>
      <trkpt lat="46.77081" lon="6.35462">
        <ele>998</ele>
        <time>2016-04-27T11:44:13Z</time>
      </trkpt>
      <trkpt lat="46.77075" lon="6.3537">
        <ele>997</ele>
        <time>2016-04-27T11:46:13Z</time>
      </trkpt>
      <trkpt lat="46.76967" lon="6.35237">
        <ele>1003</ele>
        <time>2016-04-27T11:48:13Z</time>
      </trkpt>
      <trkpt lat="46.76888" lon="6.35166">
        <ele>1004</ele>
        <time>2016-04-27T11:50:13Z</time>
      </trkpt>
      <trkpt lat="46.76766" lon="6.35177">
        <ele>1008</ele>
        <time>2016-04-27T11:52:13Z</time>
      </trkpt>
      <trkpt lat="46.76688" lon="6.35092">
        <ele>1010</ele>
        <time>2016-04-27T11:54:13Z</time>
      </trkpt>
      <trkpt lat="46.76592" lon="6.34869">
        <ele>1014</ele>
        <time>2016-04-27T11:56:13Z</time>
      </trkpt>
      <trkpt lat="46.76547" lon="6.34747">
        <ele>1013</ele>
        <time>2016-04-27T11:58:13Z</time>
      </trkpt>
      <trkpt lat="46.76476" lon="6.34585">
        <ele>1016</ele>
        <time>2016-04-27T12:00:13Z</time>
      </trkpt>
      <trkpt lat="46.76465" lon="6.34394">
        <ele>1012</ele>
        <time>2016-04-27T12:02:13Z</time>
      </trkpt>
      <trkpt lat="46.76424" lon="6.34142">
        <ele>1011</ele>
        <time>2016-04-27T12:04:13Z</time>
      </trkpt>
      <trkpt lat="46.76251" lon="6.33683">
        <ele>988</ele>
        <time>2016-04-27T12:06:13Z</time>
      </trkpt>
      <trkpt lat="46.76228" lon="6.33564">
        <ele>982</ele>
        <time>2016-04-27T12:08:13Z</time>
      </trkpt>
      <trkpt lat="46.76157" lon="6.33421">
        <ele>977</ele>
        <time>2016-04-27T12:10:13Z</time>
      </trkpt>
      <trkpt lat="46.76095" lon="6.33252">
        <ele>968</ele>
        <time>2016-04-27T12:12:13Z</time>
      </trkpt>
      <trkpt lat="46.76011" lon="6.33076">
        <ele>956</ele>
        <time>2016-04-27T12:14:13Z</time>
      </trkpt>
      <trkpt lat="46.75955" lon="6.33124">
        <ele>959</ele>
        <time>2016-04-27T12:16:13Z</time>
      </trkpt>
      <trkpt lat="46.75556" lon="6.32314">
        <ele>949</ele>
        <time>2016-04-27T12:18:13Z</time>
      </trkpt>
      <trkpt lat="46.75519" lon="6.32207">
        <ele>945</ele>
        <time>2016-04-27T12:20:13Z</time>
      </trkpt>
      <trkpt lat="46.75446" lon="6.32097">
        <ele>942</ele>
        <time>2016-04-27T12:22:13Z</time>
      </trkpt>
      <trkpt lat="46.75416" lon="6.31924">
        <ele>934</ele>
        <time>2016-04-27T12:24:13Z</time>
      </trkpt>
      <trkpt lat="46.75372" lon="6.31777">
        <ele>928</ele>
        <time>2016-04-27T12:26:13Z</time>
      </trkpt>
      <trkpt lat="46.7542" lon="6.31682">
        <ele>921</ele>
        <time>2016-04-27T12:28:13Z</time>
      </trkpt>
      <trkpt lat="46.75362" lon="6.3154">
        <ele>921</ele>
        <time>2016-04-27T12:30:13Z</time>
      </trkpt>
      <trkpt lat="46.75305" lon="6.31379">
        <ele>915</ele>
        <time>2016-04-27T12:32:13Z</time>
      </trkpt>
      <trkpt lat="46.75251" lon="6.31237">
        <ele>914</ele>
        <time>2016-04-27T12:34:13Z</time>
      </trkpt>
      <trkpt lat="46.75219" lon="6.3113">
        <ele>912</ele>
        <time>2016-04-27T12:36:13Z</time>
      </trkpt>
      <trkpt lat="46.75151" lon="6.31013">
        <ele>914</ele>
        <time>2016-04-27T12:38:13Z</time>
      </trkpt>
      <trkpt lat="46.75057" lon="6.30974">
        <ele>920</ele>
        <time>2016-04-27T12:40:13Z</time>
      </trkpt>
      <trkpt lat="46.74966" lon="6.30875">
        <ele>925</ele>
        <time>2016-04-27T12:42:13Z</time>
      </trkpt>
      <trkpt lat="46.74881" lon="6.30738">
        <ele>923</ele>
        <time>2016-04-27T12:44:13Z</time>
      </trkpt>
      <trkpt lat="46.74777" lon="6.30606">
        <ele>924</ele>
        <time>2016-04-27T12:46:13Z</time>
      </trkpt>
      <trkpt lat="46.7474" lon="6.30505">
        <ele>920</ele>
        <time>2016-04-27T12:48:13Z</time>
      </trkpt>
      <trkpt lat="46.74633" lon="6.30477">
        <ele>946</ele>
        <time>2016-04-27T12:50:13Z</time>
      </trkpt>
      <trkpt lat="46.74565" lon="6.30367">
        <ele>949</ele>
        <time>2016-04-27T12:52:13Z</time>
      </trkpt>
      <trkpt lat="46.74494" lon="6.30336">
        <ele>955</ele>
        <time>2016-04-27T12:54:13Z</time>
      </trkpt>
      <trkpt lat="46.74463" lon="6.30465">
        <ele>967</ele>
        <time>2016-04-27T12:56:13Z</time>
      </trkpt>
      <trkpt lat="46.74418" lon="6.30592">
        <ele>971</ele>
        <time>2016-04-27T12:58:13Z</time>
      </trkpt>
      <trkpt lat="46.74318" lon="6.30598">
        <ele>977</ele>
        <time>2016-04-27T13:00:13Z</time>
      </trkpt>
      <trkpt lat="46.74275" lon="6.30562">
        <ele>981</ele>
        <time>2016-04-27T13:02:13Z</time>
      </trkpt>
      <trkpt lat="46.74242" lon="6.30455">
        <ele>983</ele>
        <time>2016-04-27T13:04:13Z</time>
      </trkpt>
      <trkpt lat="46.74197" lon="6.30458">
        <ele>988</ele>
        <time>2016-04-27T13:06:13Z</time>
      </trkpt>
      <trkpt lat="46.74157" lon="6.30324">
        <ele>991</ele>
        <time>2016-04-27T13:08:13Z</time>
      </trkpt>
      <trkpt lat="46.7407" lon="6.3022">
        <ele>996</ele>
        <time>2016-04-27T13:10:13Z</time>
      </trkpt>
      <trkpt lat="46.74028" lon="6.30256">
        <ele>1003</ele>
        <time>2016-04-27T13:12:13Z</time>
      </trkpt>
      <trkpt lat="46.73909" lon="6.30201">
        <ele>1014</ele>
        <time>2016-04-27T13:14:13Z</time>
      </trkpt>
      <trkpt lat="46.73796" lon="6.30213">
        <ele>1036</ele>
        <time>2016-04-27T13:16:13Z</time>
      </trkpt>
      <trkpt lat="46.73723" lon="6.30089">
        <ele>1047</ele>
        <time>2016-04-27T13:18:13Z</time>
      </trkpt>
      <trkpt lat="46.73621" lon="6.298">
        <ele>1037</ele>
        <time>2016-04-27T13:20:13Z</time>
      </trkpt>
      <trkpt lat="46.73577" lon="6.29633">
        <ele>1027</ele>
        <time>2016-04-27T13:22:13Z</time>
      </trkpt>
      <trkpt lat="46.7353" lon="6.29577">
        <ele>1027</ele>
        <time>2016-04-27T13:24:13Z</time>
      </trkpt>
      <trkpt lat="46.73497" lon="6.2949">
        <ele>1029</ele>
        <time>2016-04-27T13:26:13Z</time>
      </trkpt>
      <trkpt lat="46.73481" lon="6.2941">
        <ele>1034</ele>
        <time>2016-04-27T13:28:13Z</time>
      </trkpt>
      <trkpt lat="46.73442" lon="6.29381">
        <ele>1047</ele>
        <time>2016-04-27T13:30:13Z</time>
      </trkpt>
      <trkpt lat="46.73363" lon="6.29185">
        <ele>1060</ele>
        <time>2016-04-27T13:32:13Z</time>
      </trkpt>
      <trkpt lat="46.73278" lon="6.29048">
        <ele>1066</ele>
        <time>2016-04-27T13:34:13Z</time>
      </trkpt>
      <trkpt lat="46.73202" lon="6.2901">
        <ele>1074</ele>
        <time>2016-04-27T13:36:13Z</time>
      </trkpt>
      <trkpt lat="46.7311" lon="6.29081">
        <ele>1088</ele>
        <time>2016-04-27T13:38:13Z</time>
      </trkpt>
      <trkpt lat="46.73001" lon="6.29093">
        <ele>1096</ele>
        <time>2016-04-27T13:40:13Z</time>
      </trkpt>
      <trkpt lat="46.72844" lon="6.29082">
        <ele>1107</ele>
        <time>2016-04-27T13:42:13Z</time>
      </trkpt>
      <trkpt lat="46.72734" lon="6.29126">
        <ele>1118</ele>
        <time>2016-04-27T13:44:13Z</time>
      </trkpt>
      <trkpt lat="46.72679" lon="6.29043">
        <ele>1118</ele>
        <time>2016-04-27T13:46:13Z</time>
      </trkpt>
      <trkpt lat="46.7271" lon="6.28915">
        <ele>1114</ele>
        <time>2016-04-27T13:48:13Z</time>
      </trkpt>
      <trkpt lat="46.72729" lon="6.28759">
        <ele>1119</ele>
        <time>2016-04-27T13:50:13Z</time>
      </trkpt>
      <trkpt lat="46.72765" lon="6.28637">
        <ele>1117</ele>
        <time>2016-04-27T13:52:13Z</time>
      </trkpt>
      <trkpt lat="46.72897" lon="6.28476">
        <ele>1107</ele>
        <time>2016-04-27T13:54:13Z</time>
      </trkpt>
      <trkpt lat="46.72869" lon="6.2835">
        <ele>1117</ele>
        <time>2016-04-27T13:56:13Z</time>
      </trkpt>
      <trkpt lat="46.7288" lon="6.28167">
        <ele>1118</ele>
        <time>2016-04-27T13:58:13Z</time>
      </trkpt>
      <trkpt lat="46.72921" lon="6.28033">
        <ele>1111</ele>
        <time>2016-04-27T14:00:13Z</time>
      </trkpt>
      <trkpt lat="46.72961" lon="6.27905">
        <ele>1102</ele>
        <time>2016-04-27T14:02:13Z</time>
      </trkpt>
      <trkpt lat="46.72902" lon="6.27802">
        <ele>1101</ele>
        <time>2016-04-27T14:04:13Z</time>
      </trkpt>
      <trkpt lat="46.72844" lon="6.27654">
        <ele>1098</ele>
        <time>2016-04-27T14:06:13Z</time>
      </trkpt>
      <trkpt lat="46.72834" lon="6.27555">
        <ele>1090</ele>
        <time>2016-04-27T14:08:13Z</time>
      </trkpt>
      <trkpt lat="46.7273" lon="6.27547">
        <ele>1102</ele>
        <time>2016-04-27T14:10:13Z</time>
      </trkpt>
      <trkpt lat="46.72644" lon="6.27436">
        <ele>1104</ele>
        <time>2016-04-27T14:12:13Z</time>
      </trkpt>
      <trkpt lat="46.72617" lon="6.27316">
        <ele>1109</ele>
        <time>2016-04-27T14:14:13Z</time>
      </trkpt>
      <trkpt lat="46.72609" lon="6.27145">
        <ele>1111</ele>
        <time>2016-04-27T14:16:13Z</time>
      </trkpt>
      <trkpt lat="46.72643" lon="6.27089">
        <ele>1110</ele>
        <time>2016-04-27T14:18:13Z</time>
      </trkpt>
      <trkpt lat="46.72647" lon="6.26952">
        <ele>1102</ele>
        <time>2016-04-27T14:20:13Z</time>
      </trkpt>
      <trkpt lat="46.72645" lon="6.26893">
        <ele>1097</ele>
        <time>2016-04-27T14:22:13Z</time>
      </trkpt>
      <trkpt lat="46.72565" lon="6.26716">
        <ele>1094</ele>
        <time>2016-04-27T14:24:13Z</time>
      </trkpt>
      <trkpt lat="46.72528" lon="6.26615">
        <ele>1093</ele>
        <time>2016-04-27T14:26:13Z</time>
      </trkpt>
      <trkpt lat="46.72559" lon="6.26513">
        <ele>1086</ele>
        <time>2016-04-27T14:28:13Z</time>
      </trkpt>
      <trkpt lat="46.72558" lon="6.26402">
        <ele>1081</ele>
        <time>2016-04-27T14:30:13Z</time>
      </trkpt>
      <trkpt lat="46.72432" lon="6.2615">
        <ele>1091</ele>
        <time>2016-04-27T14:32:13Z</time>
      </trkpt>
      <trkpt lat="46.72264" lon="6.26046">
        <ele>1099</ele>
        <time>2016-04-27T14:34:13Z</time>
      </trkpt>
      <trkpt lat="46.72176" lon="6.25994">
        <ele>1106</ele>
        <time>2016-04-27T14:36:13Z</time>
      </trkpt>
      <trkpt lat="46.72129" lon="6.25918">
        <ele>1108</ele>
        <time>2016-04-27T14:38:13Z</time>
      </trkpt>
      <trkpt lat="46.72114" lon="6.25819">
        <ele>1102</ele>
        <time>2016-04-27T14:40:13Z</time>
      </trkpt>
      <trkpt lat="46.72019" lon="6.25701">
        <ele>1101</ele>
        <time>2016-04-27T14:42:13Z</time>
      </trkpt>
      <trkpt lat="46.72006" lon="6.25569">
        <ele>1089</ele>
        <time>2016-04-27T14:44:13Z</time>
      </trkpt>
      <trkpt lat="46.71971" lon="6.25396">
        <ele>1078</ele>
        <time>2016-04-27T14:46:13Z</time>
      </trkpt>
      <trkpt lat="46.71892" lon="6.2522">
        <ele>1082</ele>
        <time>2016-04-27T14:48:13Z</time>
      </trkpt>
      <trkpt lat="46.7182" lon="6.25077">
        <ele>1085</ele>
        <time>2016-04-27T14:50:13Z</time>
      </trkpt>
      <trkpt lat="46.71672" lon="6.24929">
        <ele>1090</ele>
        <time>2016-04-27T14:52:13Z</time>
      </trkpt>
      <trkpt lat="46.71551" lon="6.24783">
        <ele>1097</ele>
        <time>2016-04-27T14:54:13Z</time>
      </trkpt>
      <trkpt lat="46.71463" lon="6.24593">
        <ele>1095</ele>
        <time>2016-04-27T14:56:13Z</time>
      </trkpt>
      <trkpt lat="46.71408" lon="6.24491">
        <ele>1099</ele>
        <time>2016-04-27T14:58:13Z</time>
      </trkpt>
      <trkpt lat="46.71336" lon="6.24479">
        <ele>1099</ele>
        <time>2016-04-27T15:00:13Z</time>
      </trkpt>
      <trkpt lat="46.71256" lon="6.24447">
        <ele>1095</ele>
        <time>2016-04-27T15:02:13Z</time>
      </trkpt>
      <trkpt lat="46.71272" lon="6.24376">
        <ele>1100</ele>
        <time>2016-04-27T15:04:13Z</time>
      </trkpt>
      <trkpt lat="46.71215" lon="6.24326">
        <ele>1105</ele>
        <time>2016-04-27T15:06:13Z</time>
      </trkpt>
      <trkpt lat="46.7111" lon="6.23965">
        <ele>1102</ele>
        <time>2016-04-27T15:08:13Z</time>
      </trkpt>
      <trkpt lat="46.71135" lon="6.23758">
        <ele>1092</ele>
        <time>2016-04-27T15:10:13Z</time>
      </trkpt>
      <trkpt lat="46.71162" lon="6.23629">
        <ele>1079</ele>
        <time>2016-04-27T15:12:13Z</time>
      </trkpt>
      <trkpt lat="46.71115" lon="6.23429">
        <ele>1066</ele>
        <time>2016-04-27T15:14:13Z</time>
      </trkpt>
      <trkpt lat="46.71081" lon="6.23374">
        <ele>1068</ele>
        <time>2016-04-27T15:16:13Z</time>
      </trkpt>
      <trkpt lat="46.71083" lon="6.23171">
        <ele>1056</ele>
        <time>2016-04-27T15:18:13Z</time>
      </trkpt>
      <trkpt lat="46.71044" lon="6.2288">
        <ele>1034</ele>
        <time>2016-04-27T15:20:13Z</time>
      </trkpt>
      <trkpt lat="46.71058" lon="6.22848">
        <ele>1027</ele>
        <time>2016-04-27T15:22:13Z</time>
      </trkpt>
      <trkpt lat="46.7098" lon="6.22633">
        <ele>1023</ele>
        <time>2016-04-27T15:24:13Z</time>
      </trkpt>
      <trkpt lat="46.70926" lon="6.22505">
        <ele>1025</ele>
        <time>2016-04-27T15:26:13Z</time>
      </trkpt>
      <trkpt lat="46.70928" lon="6.2244">
        <ele>1022</ele>
        <time>2016-04-27T15:28:13Z</time>
      </trkpt>
      <trkpt lat="46.70867" lon="6.22258">
        <ele>1029</ele>
        <time>2016-04-27T15:30:13Z</time>
      </trkpt>
      <trkpt lat="46.70841" lon="6.2208">
        <ele>1015</ele>
        <time>2016-04-27T15:32:13Z</time>
      </trkpt>
      <trkpt lat="46.70817" lon="6.21869">
        <ele>1006</ele>
        <time>2016-04-27T15:34:13Z</time>
      </trkpt>
      <trkpt lat="46.70782" lon="6.21696">
        <ele>996</ele>
        <time>2016-04-27T15:36:13Z</time>
      </trkpt>
      <trkpt lat="46.70747" lon="6.21418">
        <ele>984</ele>
        <time>2016-04-27T15:38:13Z</time>
      </trkpt>
      <trkpt lat="46.70706" lon="6.21173">
        <ele>967</ele>
        <time>2016-04-27T15:40:13Z</time>
      </trkpt>
      <trkpt lat="46.70793" lon="6.2112">
        <ele>947</ele>
        <time>2016-04-27T15:42:13Z</time>
      </trkpt>
      <trkpt lat="46.70831" lon="6.21071">
        <ele>943</ele>
        <time>2016-04-27T15:44:13Z</time>
      </trkpt>
      <trkpt lat="46.70826" lon="6.21064">
        <ele>943</ele>
        <time>2016-04-27T15:46:13Z</time>
      </trkpt>
      <trkpt lat="46.70743" lon="6.20999">
        <ele>944</ele>
        <time>2016-04-27T15:48:13Z</time>
      </trkpt>
      <trkpt lat="46.70592" lon="6.20805">
        <ele>941</ele>
        <time>2016-04-27T15:50:13Z</time>
      </trkpt>
    </trkseg>
  </trk>
</gpx>